Time;durP1;ratioP1;P1;durP2;ratioP2;P2;SDS_P1;SDS_P2;PMS_P1;PMS_P2;Temp;Humidity;BMP_temperature;BMP_pressure;BME280_temperature;BME280_humidity;BME280_pressure;Samples;Min_cycle;Max_cycle;Signal;HPM_P1;HPM_P2
2021/08/19 00:02:25;;;;;;;16.77;11.25;;;17.40;86.60;;;;;;5074288;28;20021;-38
2021/08/19 00:04:51;;;;;;;17.50;11.02;;;17.40;86.60;;;;;;5074099;28;20052;-37
2021/08/19 00:07:18;;;;;;;18.38;12.57;;;17.30;87.20;;;;;;5072713;28;20032;-37
2021/08/19 00:09:44;;;;;;;16.77;11.63;;;17.30;87.80;;;;;;5074046;28;20029;-37
2021/08/19 00:12:10;;;;;;;24.10;13.77;;;17.30;88.40;;;;;;5072675;28;20050;-37
2021/08/19 00:14:36;;;;;;;22.98;13.48;;;17.20;89.20;;;;;;5073969;28;20036;-37
2021/08/19 00:17:04;;;;;;;21.02;14.95;;;17.10;89.90;;;;;;5073996;28;20024;-37
2021/08/19 00:19:30;;;;;;;20.90;13.80;;;16.90;90.70;;;;;;5074084;28;20020;-37
2021/08/19 00:21:55;;;;;;;29.98;16.33;;;16.90;91.00;;;;;;5073923;28;20053;-38
2021/08/19 00:24:21;;;;;;;26.67;15.50;;;16.90;91.20;;;;;;5074063;28;20029;-38
2021/08/19 00:26:47;;;;;;;22.95;15.95;;;16.80;91.20;;;;;;5073873;28;20132;-37
2021/08/19 00:29:12;;;;;;;29.45;18.50;;;16.80;91.70;;;;;;5073847;28;20028;-37
2021/08/19 00:31:38;;;;;;;26.48;17.92;;;16.80;91.70;;;;;;5073821;28;20027;-37
2021/08/19 00:34:04;;;;;;;34.55;19.75;;;16.80;91.80;;;;;;5073938;28;20065;-37
2021/08/19 00:36:30;;;;;;;33.20;20.17;;;16.70;92.40;;;;;;5073597;28;20031;-37
2021/08/19 00:38:56;;;;;;;37.10;20.63;;;16.70;92.80;;;;;;5073516;28;20020;-37
2021/08/19 00:41:22;;;;;;;35.08;21.55;;;16.80;92.80;;;;;;5073018;28;20025;-37
2021/08/19 00:43:49;;;;;;;32.35;20.80;;;16.80;92.80;;;;;;5072970;28;20111;-37
2021/08/19 00:46:33;;;;;;;39.38;19.65;;;16.80;92.70;;;;;;5072680;28;20024;-37
2021/08/19 00:49:06;;;;;;;31.52;21.02;;;16.80;92.80;;;;;;5073711;28;20103;-37
2021/08/19 00:51:52;;;;;;;36.88;20.77;;;16.80;92.80;;;;;;5073075;28;20091;-37
2021/08/19 00:54:24;;;;;;;37.78;21.88;;;16.80;92.90;;;;;;5073253;28;20031;-37
2021/08/19 00:57:00;;;;;;;36.67;22.58;;;16.80;93.10;;;;;;5073069;28;20166;-37
2021/08/19 00:59:26;;;;;;;39.67;23.92;;;16.80;93.10;;;;;;5072924;28;20024;-37
2021/08/19 01:01:56;;;;;;;37.67;21.58;;;16.80;93.30;;;;;;5073033;28;20020;-37
2021/08/19 01:04:22;;;;;;;41.67;24.33;;;16.70;93.40;;;;;;5073176;28;20032;-37
2021/08/19 01:06:49;;;;;;;41.17;22.10;;;16.70;93.60;;;;;;5072922;28;20587;-37
2021/08/19 01:09:16;;;;;;;42.17;25.65;;;16.70;93.60;;;;;;5073256;28;20021;-37
2021/08/19 01:11:44;;;;;;;43.83;24.65;;;16.80;93.50;;;;;;5073073;28;20545;-37
2021/08/19 01:14:14;;;;;;;42.90;25.55;;;16.80;93.30;;;;;;5072996;28;20441;-37
2021/08/19 01:16:47;;;;;;;39.35;21.67;;;16.80;93.30;;;;;;5072984;28;20381;-37
2021/08/19 01:19:17;;;;;;;37.10;22.85;;;16.80;93.30;;;;;;5071515;28;20047;-37
2021/08/19 01:21:44;;;;;;;50.10;28.05;;;16.80;93.30;;;;;;5072951;28;20043;-38
2021/08/19 01:24:10;;;;;;;38.70;23.05;;;16.90;93.10;;;;;;5072869;28;20447;-37
2021/08/19 01:26:37;;;;;;;35.25;23.60;;;16.80;93.00;;;;;;5071584;28;20017;-37
2021/08/19 01:29:04;;;;;;;40.53;24.20;;;16.80;93.20;;;;;;5072669;28;20032;-37
2021/08/19 01:31:32;;;;;;;39.35;24.15;;;16.80;93.10;;;;;;5073021;28;20469;-37
2021/08/19 01:33:58;;;;;;;42.30;25.70;;;16.90;92.90;;;;;;5072737;28;20044;-36
2021/08/19 01:36:23;;;;;;;46.60;25.58;;;17.00;92.80;;;;;;5073205;28;20487;-37
2021/08/19 01:38:50;;;;;;;43.08;26.55;;;17.00;92.70;;;;;;5072810;28;20024;-37
2021/08/19 01:41:16;;;;;;;42.42;23.95;;;17.00;92.60;;;;;;5073120;28;20469;-37
2021/08/19 01:43:42;;;;;;;37.78;23.38;;;16.90;92.60;;;;;;5072830;28;20020;-37
2021/08/19 01:46:09;;;;;;;39.88;23.92;;;16.90;92.80;;;;;;5072742;28;20441;-37
2021/08/19 01:48:36;;;;;;;37.78;24.88;;;16.90;92.70;;;;;;5072819;28;20115;-37
2021/08/19 01:51:02;;;;;;;38.85;24.40;;;17.00;92.60;;;;;;5072757;28;20048;-37
2021/08/19 01:53:28;;;;;;;46.05;24.13;;;17.00;92.70;;;;;;5071980;28;20102;-38
2021/08/19 01:56:00;;;;;;;41.28;24.45;;;16.90;92.60;;;;;;5072782;28;20071;-38
2021/08/19 01:58:26;;;;;;;45.85;25.05;;;17.00;92.60;;;;;;5073017;28;20036;-37
2021/08/19 02:00:53;;;;;;;45.15;25.98;;;17.00;92.40;;;;;;5072967;28;20024;-37
2021/08/19 02:03:19;;;;;;;37.40;24.00;;;17.00;92.40;;;;;;5071384;28;20028;-37
2021/08/19 02:05:51;;;;;;;39.25;25.77;;;17.10;92.50;;;;;;5076507;28;20473;-36
2021/08/19 02:08:17;;;;;;;42.38;26.08;;;17.00;92.40;;;;;;5077070;28;20025;-37
2021/08/19 02:10:43;;;;;;;57.28;30.08;;;17.00;92.50;;;;;;5076702;28;20021;-37
2021/08/19 02:13:10;;;;;;;46.55;28.38;;;17.00;92.60;;;;;;5076900;28;20027;-37
2021/08/19 02:15:36;;;;;;;49.63;28.25;;;17.00;92.80;;;;;;5076601;28;20463;-37
2021/08/19 02:18:02;;;;;;;52.60;29.63;;;17.00;92.90;;;;;;5076612;28;20020;-37
2021/08/19 02:20:28;;;;;;;49.65;30.90;;;17.00;92.90;;;;;;5076700;28;20032;-37
2021/08/19 02:23:01;;;;;;;46.63;28.05;;;16.90;93.00;;;;;;5076306;28;20052;-37
2021/08/19 02:25:27;;;;;;;54.53;31.00;;;16.80;93.50;;;;;;5076628;28;20068;-37
2021/08/19 02:27:54;;;;;;;55.60;28.92;;;16.80;93.50;;;;;;5076840;28;20020;-37
2021/08/19 02:30:20;;;;;;;50.13;29.98;;;16.80;93.70;;;;;;5076284;28;20100;-37
2021/08/19 02:32:52;;;;;;;51.25;29.02;;;16.70;94.00;;;;;;5076536;28;20166;-37
2021/08/19 02:35:18;;;;;;;54.05;30.80;;;16.70;94.20;;;;;;5076182;28;20056;-37
2021/08/19 02:37:44;;;;;;;46.30;30.20;;;16.70;94.30;;;;;;5076372;28;20052;-37
2021/08/19 02:40:10;;;;;;;47.50;28.73;;;16.60;94.40;;;;;;5075867;28;20047;-37
2021/08/19 02:42:35;;;;;;;53.92;31.33;;;16.60;94.50;;;;;;5076275;28;20476;-37
2021/08/19 02:45:01;;;;;;;57.15;31.63;;;16.60;94.50;;;;;;5075933;28;20032;-37
2021/08/19 02:47:26;;;;;;;59.88;33.97;;;16.60;94.70;;;;;;5076191;28;20024;-37
2021/08/19 02:49:52;;;;;;;66.03;34.72;;;16.60;94.70;;;;;;5075924;28;20362;-37
2021/08/19 02:52:18;;;;;;;62.95;34.88;;;16.60;94.70;;;;;;5075883;28;20024;-37
2021/08/19 02:54:43;;;;;;;74.05;37.35;;;16.60;94.80;;;;;;5075855;28;20472;-37
2021/08/19 02:57:09;;;;;;;65.55;36.67;;;16.60;94.70;;;;;;5075793;28;20423;-36
2021/08/19 02:59:34;;;;;;;61.70;34.08;;;16.60;94.70;;;;;;5075777;28;20109;-36
2021/08/19 03:02:00;;;;;;;58.67;32.67;;;16.50;94.80;;;;;;5075836;28;20086;-36
2021/08/19 03:04:26;;;;;;;59.80;32.13;;;16.50;94.90;;;;;;5075803;28;20119;-36
2021/08/19 03:06:51;;;;;;;64.97;34.03;;;16.60;94.80;;;;;;5075561;28;20020;-36
2021/08/19 03:09:17;;;;;;;61.47;34.22;;;16.60;94.80;;;;;;5075741;28;20028;-36
2021/08/19 03:11:42;;;;;;;61.22;31.52;;;16.60;94.70;;;;;;5075532;28;20060;-36
2021/08/19 03:14:08;;;;;;;58.45;33.22;;;16.60;94.60;;;;;;5075677;28;20025;-37
2021/08/19 03:16:34;;;;;;;49.80;30.52;;;16.60;94.70;;;;;;5075801;28;20103;-37
2021/08/19 03:19:01;;;;;;;59.22;31.08;;;16.60;94.60;;;;;;5075419;28;20020;-37
2021/08/19 03:21:26;;;;;;;52.05;31.63;;;16.60;94.60;;;;;;5075126;28;20016;-36
2021/08/19 03:23:52;;;;;;;52.15;31.77;;;16.60;94.50;;;;;;5073964;28;20025;-37
2021/08/19 03:26:18;;;;;;;56.92;31.08;;;16.60;94.40;;;;;;5075481;28;20029;-37
2021/08/19 03:28:44;;;;;;;53.67;33.17;;;16.60;94.20;;;;;;5075431;28;20020;-37
2021/08/19 03:31:10;;;;;;;52.13;30.80;;;16.60;94.30;;;;;;5073857;28;20106;-37
2021/08/19 03:33:38;;;;;;;51.22;30.10;;;16.60;94.20;;;;;;5075332;28;20024;-36
2021/08/19 03:36:05;;;;;;;49.70;29.08;;;16.60;94.10;;;;;;5074954;28;20048;-37
2021/08/19 03:38:31;;;;;;;47.88;28.40;;;16.50;94.00;;;;;;5074988;28;20108;-38
2021/08/19 03:40:57;;;;;;;39.40;25.65;;;16.60;94.00;;;;;;5075476;28;20100;-37
2021/08/19 03:43:22;;;;;;;40.60;25.25;;;16.60;93.80;;;;;;5075207;28;20120;-38
2021/08/19 03:45:48;;;;;;;47.28;29.08;;;16.60;93.90;;;;;;5074770;28;20029;-37
2021/08/19 03:48:15;;;;;;;44.42;25.95;;;16.50;93.90;;;;;;5074718;28;20024;-36
2021/08/19 03:50:40;;;;;;;49.97;28.05;;;16.50;94.00;;;;;;5074678;28;20021;-36
2021/08/19 03:53:06;;;;;;;46.50;25.50;;;16.50;94.10;;;;;;5074077;28;20028;-36
2021/08/19 03:55:32;;;;;;;45.78;28.02;;;16.50;94.00;;;;;;5074430;28;20487;-36
2021/08/19 03:57:58;;;;;;;42.42;27.05;;;16.50;94.00;;;;;;5074123;28;20020;-37
2021/08/19 04:00:23;;;;;;;40.28;25.30;;;16.50;93.70;;;;;;5073954;28;20025;-43
2021/08/19 04:02:49;;;;;;;40.35;24.52;;;16.50;93.80;;;;;;5073980;28;20078;-37
2021/08/19 04:05:16;;;;;;;33.33;23.08;;;16.40;93.50;;;;;;5073917;28;20047;-37
2021/08/19 04:07:42;;;;;;;36.75;23.15;;;16.40;93.40;;;;;;5074075;28;20020;-38
2021/08/19 04:10:08;;;;;;;31.80;20.30;;;16.40;93.30;;;;;;5073842;28;20025;-37
2021/08/19 04:12:35;;;;;;;39.92;23.15;;;16.40;93.40;;;;;;5074108;28;20024;-37
2021/08/19 04:15:02;;;;;;;29.95;19.38;;;16.30;93.40;;;;;;5074096;28;20025;-36
2021/08/19 04:17:28;;;;;;;29.35;20.08;;;16.30;93.30;;;;;;5072350;28;20036;-36
2021/08/19 04:19:54;;;;;;;29.45;19.45;;;16.30;93.40;;;;;;5074137;28;20389;-36
2021/08/19 04:22:20;;;;;;;31.77;20.60;;;16.30;93.40;;;;;;5073931;28;20064;-36
2021/08/19 04:24:45;;;;;;;29.85;19.42;;;16.30;93.70;;;;;;5073883;28;20031;-36
2021/08/19 04:27:11;;;;;;;30.67;19.83;;;16.30;93.40;;;;;;5073103;28;20103;-36
2021/08/19 04:29:36;;;;;;;35.97;21.75;;;16.40;93.40;;;;;;5073419;28;20399;-37
2021/08/19 04:32:04;;;;;;;39.00;21.95;;;16.40;93.40;;;;;;5073928;28;20021;-37
2021/08/19 04:34:30;;;;;;;38.15;23.35;;;16.40;93.40;;;;;;5073867;28;20369;-38
2021/08/19 04:36:56;;;;;;;42.78;24.00;;;16.30;93.50;;;;;;5073916;28;20037;-36
2021/08/19 04:39:22;;;;;;;37.80;25.13;;;16.40;93.60;;;;;;5073855;28;20093;-36
2021/08/19 04:41:48;;;;;;;42.90;23.75;;;16.40;93.60;;;;;;5074022;28;20337;-37
2021/08/19 04:44:13;;;;;;;41.65;24.77;;;16.30;93.70;;;;;;5073644;28;20036;-36
2021/08/19 04:46:39;;;;;;;40.63;25.98;;;16.40;93.80;;;;;;5073635;28;20021;-36
2021/08/19 04:49:07;;;;;;;49.67;27.05;;;16.40;93.90;;;;;;5073488;28;20016;-36
2021/08/19 04:51:35;;;;;;;49.38;28.40;;;16.40;93.90;;;;;;5073315;28;20024;-37
2021/08/19 04:54:02;;;;;;;50.08;27.95;;;16.40;93.90;;;;;;5073329;28;20468;-36
2021/08/19 04:56:29;;;;;;;40.15;25.42;;;16.40;94.10;;;;;;5073604;28;20052;-36
2021/08/19 04:58:57;;;;;;;48.45;27.73;;;16.40;94.30;;;;;;5073642;28;20094;-36
2021/08/19 05:01:23;;;;;;;59.80;27.25;;;16.40;94.20;;;;;;5073738;28;20461;-36
2021/08/19 05:03:48;;;;;;;52.45;30.55;;;16.40;94.40;;;;;;5073537;28;20028;-35
2021/08/19 05:06:14;;;;;;;61.72;32.10;;;16.40;94.30;;;;;;5073425;28;20021;-37
2021/08/19 05:08:40;;;;;;;53.08;29.83;;;16.50;94.10;;;;;;5073350;28;20483;-36
2021/08/19 05:11:05;;;;;;;60.80;33.15;;;16.50;94.10;;;;;;5073383;28;20459;-35
2021/08/19 05:13:31;;;;;;;66.32;33.40;;;16.50;94.20;;;;;;5073664;28;20430;-37
2021/08/19 05:15:57;;;;;;;76.05;36.03;;;16.50;94.10;;;;;;5073281;28;20025;-36
2021/08/19 05:18:24;;;;;;;66.15;35.10;;;16.60;94.30;;;;;;5073074;28;20078;-37
2021/08/19 05:20:50;;;;;;;81.80;35.08;;;16.50;94.10;;;;;;5072755;28;20464;-36
2021/08/19 05:23:15;;;;;;;70.20;35.88;;;16.50;94.30;;;;;;5071388;28;20059;-37
2021/08/19 05:25:41;;;;;;;75.43;35.95;;;16.50;94.40;;;;;;5072820;28;20020;-36
2021/08/19 05:28:06;;;;;;;69.88;34.28;;;16.50;94.30;;;;;;5073052;28;20476;-36
2021/08/19 05:30:32;;;;;;;70.85;33.92;;;16.50;94.20;;;;;;5072560;28;20070;-37
2021/08/19 05:32:58;;;;;;;68.20;33.95;;;16.50;94.40;;;;;;5073441;28;20413;-36
2021/08/19 05:35:23;;;;;;;78.75;37.58;;;16.50;94.20;;;;;;5072763;28;20106;-36
2021/08/19 05:37:49;;;;;;;77.10;36.75;;;16.60;94.20;;;;;;5072606;28;20472;-36
2021/08/19 05:40:15;;;;;;;94.07;38.25;;;16.60;94.10;;;;;;5072356;28;20032;-36
2021/08/19 05:42:40;;;;;;;74.45;38.40;;;16.60;94.10;;;;;;5072509;28;20094;-37
2021/08/19 05:45:06;;;;;;;76.32;38.35;;;16.50;94.20;;;;;;5072867;28;20051;-37
2021/08/19 05:47:32;;;;;;;72.63;36.50;;;16.50;94.20;;;;;;5071227;28;20035;-36
2021/08/19 05:49:58;;;;;;;83.30;40.17;;;16.60;94.20;;;;;;5072541;28;20500;-36
2021/08/19 05:52:23;;;;;;;74.20;40.45;;;16.60;94.00;;;;;;5072654;28;20075;-38
2021/08/19 05:54:49;;;;;;;68.30;36.20;;;16.60;94.10;;;;;;5072317;28;20021;-36
2021/08/19 05:57:16;;;;;;;78.85;40.25;;;16.60;93.90;;;;;;5072688;28;20020;-36
2021/08/19 05:59:42;;;;;;;65.47;37.60;;;16.70;93.90;;;;;;5072297;28;20334;-36
2021/08/19 06:02:08;;;;;;;67.63;34.75;;;16.70;93.70;;;;;;5072341;28;20039;-36
2021/08/19 06:04:36;;;;;;;64.05;35.67;;;16.80;93.60;;;;;;5072499;28;20342;-36
2021/08/19 06:07:02;;;;;;;69.90;34.13;;;16.80;93.50;;;;;;5072227;28;20131;-37
2021/08/19 06:09:28;;;;;;;62.53;33.33;;;16.80;93.40;;;;;;5073345;28;20475;-37
2021/08/19 06:11:53;;;;;;;57.50;34.90;;;16.80;93.40;;;;;;5072327;28;20017;-36
2021/08/19 06:14:19;;;;;;;53.00;32.05;;;16.80;93.30;;;;;;5072440;28;20036;-37
2021/08/19 06:16:45;;;;;;;58.00;33.38;;;16.80;93.00;;;;;;5072346;28;20044;-37
2021/08/19 06:19:11;;;;;;;57.97;30.52;;;16.80;93.00;;;;;;5072731;28;20111;-37
2021/08/19 06:21:36;;;;;;;49.97;29.45;;;16.80;92.60;;;;;;5072169;28;20044;-37
2021/08/19 06:24:02;;;;;;;46.58;29.88;;;16.90;92.60;;;;;;5072178;28;20095;-37
2021/08/19 06:26:28;;;;;;;44.90;29.08;;;17.00;92.10;;;;;;5072825;28;20029;-37
2021/08/19 06:28:54;;;;;;;51.97;29.00;;;16.90;92.10;;;;;;5072652;28;20376;-37
2021/08/19 06:31:20;;;;;;;46.85;26.85;;;17.00;91.90;;;;;;5070992;28;20075;-36
2021/08/19 06:33:46;;;;;;;49.22;30.35;;;17.00;92.00;;;;;;5072168;28;20021;-38
2021/08/19 06:36:12;;;;;;;44.83;26.50;;;17.10;91.90;;;;;;5072884;28;20020;-37
2021/08/19 06:38:38;;;;;;;38.65;25.13;;;17.00;91.80;;;;;;5072353;28;20032;-37
2021/08/19 06:41:03;;;;;;;48.05;27.20;;;16.90;92.00;;;;;;5072636;28;20063;-37
2021/08/19 06:43:29;;;;;;;52.88;28.65;;;16.90;92.30;;;;;;5071811;28;20057;-37
2021/08/19 06:45:55;;;;;;;54.75;30.08;;;16.80;92.40;;;;;;5071097;28;20025;-37
2021/08/19 06:48:20;;;;;;;45.25;28.77;;;16.80;92.90;;;;;;5071972;28;20158;-37
2021/08/19 06:50:46;;;;;;;53.40;29.13;;;16.80;93.00;;;;;;5072552;28;20020;-37
2021/08/19 06:53:12;;;;;;;56.28;31.25;;;16.80;93.00;;;;;;5076067;28;20078;-37
2021/08/19 06:55:37;;;;;;;44.67;26.52;;;16.70;93.00;;;;;;5077104;28;20464;-36
2021/08/19 06:58:03;;;;;;;49.67;29.67;;;16.60;93.30;;;;;;5078039;28;20037;-37
2021/08/19 07:00:29;;;;;;;48.95;28.50;;;16.60;93.50;;;;;;5075485;28;20380;-37
2021/08/19 07:02:54;;;;;;;58.35;30.90;;;16.50;93.60;;;;;;5075101;28;20078;-36
2021/08/19 07:05:20;;;;;;;58.17;31.73;;;16.50;93.80;;;;;;5075174;28;20033;-37
2021/08/19 07:07:45;;;;;;;63.40;33.60;;;16.50;93.90;;;;;;5075302;28;20074;-37
2021/08/19 07:10:11;;;;;;;63.45;33.58;;;16.50;94.00;;;;;;5075165;28;20436;-36
2021/08/19 07:12:38;;;;;;;72.80;34.15;;;16.50;94.00;;;;;;5075441;28;20104;-37
2021/08/19 07:15:06;;;;;;;64.70;36.17;;;16.60;93.90;;;;;;5075476;28;20029;-37
2021/08/19 07:17:32;;;;;;;76.47;37.88;;;16.50;93.90;;;;;;5075210;28;20033;-37
2021/08/19 07:19:57;;;;;;;57.72;31.98;;;16.50;93.90;;;;;;5075195;28;20032;-37
2021/08/19 07:22:23;;;;;;;61.92;33.00;;;16.50;93.60;;;;;;5074356;28;20059;-39
2021/08/19 07:24:49;;;;;;;58.97;33.10;;;16.50;93.60;;;;;;5074785;28;20029;-40
2021/08/19 07:27:15;;;;;;;57.10;32.88;;;16.50;93.30;;;;;;5074672;28;20065;-35
2021/08/19 07:29:41;;;;;;;66.53;36.67;;;16.60;93.40;;;;;;5074722;28;20025;-36
2021/08/19 07:32:07;;;;;;;68.07;39.05;;;16.70;93.10;;;;;;5075098;28;20025;-36
2021/08/19 07:34:33;;;;;;;64.35;36.72;;;16.70;92.90;;;;;;5074961;28;20048;-36
2021/08/19 07:37:00;;;;;;;64.07;34.38;;;16.70;93.10;;;;;;5074430;28;20068;-36
2021/08/19 07:39:26;;;;;;;70.63;36.08;;;16.70;92.80;;;;;;5074347;28;20111;-36
2021/08/19 07:41:51;;;;;;;63.05;32.83;;;16.80;92.70;;;;;;5074402;28;20541;-36
2021/08/19 07:44:17;;;;;;;54.85;34.95;;;16.80;92.20;;;;;;5074397;28;20472;-36
2021/08/19 07:46:43;;;;;;;57.17;33.30;;;16.80;92.00;;;;;;5074974;28;20070;-37
2021/08/19 07:49:08;;;;;;;58.22;33.53;;;16.80;92.10;;;;;;5074737;28;20099;-37
2021/08/19 07:51:34;;;;;;;59.65;36.22;;;16.80;91.90;;;;;;5074407;28;20016;-36
2021/08/19 07:54:01;;;;;;;61.40;33.78;;;17.00;92.10;;;;;;5074275;28;20103;-37
2021/08/19 07:56:27;;;;;;;66.30;33.78;;;17.00;91.60;;;;;;5075877;28;20036;-37
2021/08/19 07:58:57;;;;;;;60.25;34.00;;;16.90;91.60;;;;;;5075081;28;20025;-38
2021/08/19 08:01:22;;;;;;;56.83;32.97;;;16.80;91.60;;;;;;5074021;28;20025;-38
2021/08/19 08:03:48;;;;;;;54.47;31.70;;;16.90;91.60;;;;;;5074678;28;20036;-37
2021/08/19 08:06:14;;;;;;;48.55;30.60;;;16.90;91.80;;;;;;5072881;28;20028;-37
2021/08/19 08:08:39;;;;;;;57.70;31.73;;;17.00;91.50;;;;;;5074070;28;20023;-37
2021/08/19 08:11:05;;;;;;;55.67;32.22;;;17.00;91.30;;;;;;5074150;28;20016;-38
2021/08/19 08:13:31;;;;;;;65.00;32.63;;;16.90;91.70;;;;;;5074115;28;20048;-37
2021/08/19 08:15:57;;;;;;;47.53;29.17;;;17.10;91.40;;;;;;5073576;28;20052;-37
2021/08/19 08:18:22;;;;;;;56.15;31.33;;;17.00;91.40;;;;;;5074082;28;20025;-38
2021/08/19 08:20:49;;;;;;;48.15;30.25;;;17.10;91.30;;;;;;5073943;28;20035;-38
2021/08/19 08:23:18;;;;;;;48.85;29.67;;;17.20;91.20;;;;;;5073660;28;20093;-38
2021/08/19 08:25:45;;;;;;;48.88;28.77;;;17.10;90.90;;;;;;5074151;28;20025;-39
2021/08/19 08:28:12;;;;;;;45.72;29.80;;;17.10;91.10;;;;;;5073915;28;20078;-38
2021/08/19 08:30:40;;;;;;;56.72;29.42;;;17.10;91.40;;;;;;5073095;28;20469;-38
2021/08/19 08:33:07;;;;;;;64.25;31.20;;;17.10;91.40;;;;;;5073678;28;20028;-37
2021/08/19 08:35:36;;;;;;;44.95;27.00;;;17.10;91.30;;;;;;5074222;28;20033;-38
2021/08/19 08:38:06;;;;;;;42.80;27.15;;;17.10;91.20;;;;;;5072594;28;20028;-38
2021/08/19 08:40:33;;;;;;;44.47;27.42;;;17.20;91.10;;;;;;5072823;28;20032;-37
2021/08/19 08:42:59;;;;;;;47.22;27.48;;;17.10;91.00;;;;;;5073995;28;20042;-38
2021/08/19 08:45:26;;;;;;;44.40;26.02;;;17.10;91.20;;;;;;5073771;28;20032;-37
2021/08/19 08:47:52;;;;;;;40.85;24.70;;;17.20;91.20;;;;;;5073987;28;20081;-37
2021/08/19 08:50:18;;;;;;;38.38;25.55;;;17.10;90.80;;;;;;5073647;28;20035;-37
2021/08/19 08:52:44;;;;;;;33.33;23.27;;;17.10;90.80;;;;;;5073878;28;20024;-37
2021/08/19 08:55:10;;;;;;;36.28;24.40;;;17.10;91.00;;;;;;5073894;28;20029;-37
2021/08/19 08:57:37;;;;;;;34.40;23.38;;;17.20;91.00;;;;;;5073534;28;20029;-37
2021/08/19 09:00:08;;;;;;;35.00;23.30;;;17.20;90.80;;;;;;5071914;28;20032;-37
2021/08/19 09:02:36;;;;;;;37.33;24.70;;;17.10;90.80;;;;;;5073566;28;20035;-37
2021/08/19 09:05:26;;;;;;;42.63;24.10;;;17.20;91.20;;;;;;5073511;28;20021;-37
2021/08/19 09:07:56;;;;;;;45.67;26.30;;;17.10;91.50;;;;;;5073913;28;20044;-37
2021/08/19 09:10:25;;;;;;;42.67;26.80;;;17.10;91.80;;;;;;5073860;28;20040;-38
2021/08/19 09:12:52;;;;;;;49.15;28.15;;;17.10;91.90;;;;;;5073274;28;20259;-37
2021/08/19 09:15:19;;;;;;;55.42;29.15;;;17.00;92.60;;;;;;5073249;28;20059;-37
2021/08/19 09:17:53;;;;;;;52.80;30.05;;;16.90;92.70;;;;;;5073102;28;20436;-37
2021/08/19 09:20:22;;;;;;;49.25;28.58;;;16.90;93.10;;;;;;5072823;28;20031;-37
2021/08/19 09:22:57;;;;;;;57.38;32.38;;;16.80;92.90;;;;;;5073301;28;20135;-37
2021/08/19 09:25:34;;;;;;;54.95;32.00;;;17.00;93.00;;;;;;5072964;28;20069;-37
2021/08/19 09:28:18;;;;;;;47.80;29.85;;;16.90;93.10;;;;;;5073031;28;20024;-37
2021/08/19 09:30:54;;;;;;;49.72;31.42;;;16.90;93.00;;;;;;5072984;28;20034;-36
2021/08/19 09:33:25;;;;;;;60.45;33.03;;;17.00;93.30;;;;;;5072845;28;20025;-37
2021/08/19 09:35:52;;;;;;;58.15;33.35;;;17.00;93.20;;;;;;5072694;28;20029;-37
2021/08/19 09:38:36;;;;;;;59.90;33.90;;;17.10;93.30;;;;;;5073104;28;20024;-37
2021/08/19 09:41:17;;;;;;;53.53;31.15;;;17.10;93.00;;;;;;5072969;28;20056;-37
2021/08/19 09:43:53;;;;;;;60.17;34.53;;;17.00;93.00;;;;;;5073314;28;20103;-38
2021/08/19 09:46:31;;;;;;;57.03;32.38;;;17.10;93.20;;;;;;5074419;28;20029;-38
2021/08/19 09:49:00;;;;;;;51.05;30.45;;;17.10;93.00;;;;;;5071026;28;20089;-38
2021/08/19 09:51:26;;;;;;;50.38;30.00;;;17.10;93.30;;;;;;5072822;28;20149;-37
2021/08/19 09:53:58;;;;;;;57.85;33.42;;;17.10;93.20;;;;;;5072446;28;20012;-38
2021/08/19 09:56:36;;;;;;;55.38;32.17;;;17.00;93.50;;;;;;5072908;28;20556;-38
2021/08/19 09:59:22;;;;;;;61.55;33.00;;;16.90;93.50;;;;;;5072849;28;20025;-38
2021/08/19 10:01:52;;;;;;;58.88;32.28;;;16.90;93.90;;;;;;5072115;28;20032;-36
2021/08/19 10:04:18;;;;;;;;;;;16.90;93.90;;;;;;5072429;28;20559;-36
2021/08/19 10:06:45;;;;;;;53.63;30.38;;;16.90;93.80;;;;;;5072310;28;19944;-37
2021/08/19 10:09:12;;;;;;;55.72;30.58;;;16.90;94.00;;;;;;5071814;28;20054;-37
2021/08/19 10:11:41;;;;;;;51.47;30.90;;;17.00;93.80;;;;;;5072156;28;20032;-37
2021/08/19 10:14:11;;;;;;;57.43;29.60;;;17.00;93.80;;;;;;5071460;28;20040;-37
2021/08/19 10:16:39;;;;;;;46.80;29.10;;;17.10;93.80;;;;;;5071978;28;20028;-38
2021/08/19 10:19:09;;;;;;;42.88;29.80;;;17.10;93.60;;;;;;5071573;28;20423;-37
2021/08/19 10:21:37;;;;;;;49.85;29.50;;;17.00;93.30;;;;;;5071748;28;20044;-37
2021/08/19 10:24:04;;;;;;;48.40;28.67;;;17.00;93.40;;;;;;5071735;28;20040;-37
2021/08/19 10:26:30;;;;;;;45.65;29.67;;;16.90;93.60;;;;;;5075019;28;20085;-37
2021/08/19 10:28:58;;;;;;;47.20;29.35;;;16.90;94.10;;;;;;5074561;28;20025;-38
2021/08/19 10:31:43;;;;;;;50.50;31.80;;;16.90;94.10;;;;;;5076163;28;20392;-38
2021/08/19 10:34:53;;;;;;;52.17;32.53;;;16.90;94.00;;;;;;5075899;28;20070;-37
2021/08/19 10:37:19;;;;;;;55.75;31.48;;;17.00;93.70;;;;;;5065216;28;20040;-37
2021/08/19 10:39:45;;;;;;;59.83;32.78;;;16.80;94.00;;;;;;5075883;28;20469;-37
2021/08/19 10:42:27;;;;;;;63.30;35.30;;;16.80;93.80;;;;;;5075897;28;20023;-37
2021/08/19 10:44:52;;;;;;;59.05;34.00;;;16.80;94.20;;;;;;5075724;28;20107;-37
2021/08/19 10:47:38;;;;;;;64.63;35.20;;;16.80;94.20;;;;;;5074089;28;20412;-38
2021/08/19 10:50:30;;;;;;;61.63;33.20;;;16.90;94.00;;;;;;5076178;28;20418;-37
2021/08/19 10:53:08;;;;;;;68.53;36.53;;;16.90;94.10;;;;;;5076638;28;20100;-37
2021/08/19 10:55:47;;;;;;;67.20;37.67;;;16.90;93.70;;;;;;5076114;28;20112;-37
2021/08/19 10:58:29;;;;;;;70.15;38.00;;;16.90;93.70;;;;;;5076094;28;20498;-37
2021/08/19 11:01:22;;;;;;;59.55;34.92;;;17.10;93.80;;;;;;5075507;28;20101;-38
2021/08/19 11:03:48;;;;;;;64.32;36.53;;;17.00;93.30;;;;;;5075543;28;20110;-38
2021/08/19 11:06:19;;;;;;;67.72;37.47;;;17.10;93.50;;;;;;5076160;28;20094;-38
2021/08/19 11:08:52;;;;;;;70.22;39.10;;;17.10;92.80;;;;;;5075757;28;20078;-38
2021/08/19 11:11:37;;;;;;;61.10;36.45;;;17.30;92.80;;;;;;5076327;28;20488;-39
2021/08/19 11:14:03;;;;;;;56.88;33.85;;;17.30;92.60;;;;;;5075288;28;20104;-38
2021/08/19 11:16:29;;;;;;;66.00;35.63;;;17.20;92.90;;;;;;5075682;28;20112;-40
2021/08/19 11:19:20;;;;;;;63.70;36.30;;;17.10;92.70;;;;;;5075556;28;20025;-40
2021/08/19 11:21:55;;;;;;;75.38;39.47;;;17.00;93.20;;;;;;5073834;28;20044;-37
2021/08/19 11:24:25;;;;;;;61.97;37.28;;;17.00;93.40;;;;;;5074025;28;20025;-38
2021/08/19 11:27:02;;;;;;;71.30;38.88;;;16.90;93.20;;;;;;5074493;28;20104;-38
2021/08/19 11:29:32;;;;;;;63.53;38.15;;;16.90;93.20;;;;;;5075395;28;20025;-37
2021/08/19 11:32:03;;;;;;;56.38;33.90;;;17.00;92.90;;;;;;5075015;28;20086;-37
2021/08/19 11:34:29;;;;;;;58.38;35.55;;;17.00;92.30;;;;;;5075966;28;20024;-37
2021/08/19 11:36:55;;;;;;;67.10;36.65;;;17.00;92.40;;;;;;5072394;28;20036;-37
2021/08/19 11:39:27;;;;;;;56.05;33.33;;;17.00;92.10;;;;;;5073793;28;20074;-37
2021/08/19 11:41:57;;;;;;;60.47;37.45;;;17.00;92.40;;;;;;5074853;28;20052;-37
2021/08/19 11:44:22;;;;;;;66.57;35.67;;;16.80;92.70;;;;;;5075055;28;20056;-37
2021/08/19 11:46:48;;;;;;;51.33;33.75;;;16.90;92.80;;;;;;5074769;28;20079;-37
2021/08/19 11:49:14;;;;;;;43.70;29.23;;;17.10;92.30;;;;;;5074486;28;20090;-36
2021/08/19 11:51:42;;;;;;;51.45;29.38;;;17.20;91.70;;;;;;5073387;28;20487;-38
2021/08/19 11:54:13;;;;;;;46.92;29.85;;;17.40;91.00;;;;;;5074258;28;20051;-38
2021/08/19 11:56:45;;;;;;;46.22;27.73;;;17.60;90.80;;;;;;5076082;28;20063;-37
2021/08/19 11:59:13;;;;;;;44.53;29.42;;;17.80;90.10;;;;;;5074869;28;20021;-38
2021/08/19 12:01:56;;;;;;;43.38;27.77;;;17.90;89.80;;;;;;5074255;28;20020;-37
2021/08/19 12:04:33;;;;;;;40.97;26.98;;;18.20;88.80;;;;;;5073511;28;20032;-37
2021/08/19 12:07:00;;;;;;;39.83;26.90;;;18.10;88.80;;;;;;5074081;28;20024;-37
2021/08/19 12:09:32;;;;;;;37.83;27.23;;;18.30;89.00;;;;;;5074266;28;20097;-38
2021/08/19 12:11:58;;;;;;;41.85;26.80;;;18.30;88.50;;;;;;5075011;28;20024;-37
2021/08/19 12:14:26;;;;;;;34.55;24.40;;;18.20;88.40;;;;;;5072760;28;20476;-37
2021/08/19 12:16:54;;;;;;;38.92;24.77;;;18.20;88.90;;;;;;5074153;28;20021;-37
2021/08/19 12:19:27;;;;;;;34.95;23.60;;;18.30;88.30;;;;;;5074034;28;20481;-37
2021/08/19 12:21:52;;;;;;;39.03;24.70;;;18.00;88.60;;;;;;5073729;28;20511;-36
2021/08/19 12:24:36;;;;;;;33.05;22.88;;;17.90;89.00;;;;;;5073435;28;20036;-37
2021/08/19 12:27:08;;;;;;;35.53;23.02;;;17.90;89.10;;;;;;5071972;28;20035;-37
2021/08/19 12:29:50;;;;;;;32.45;22.80;;;18.10;88.80;;;;;;5073523;28;20024;-37
2021/08/19 12:32:30;;;;;;;35.17;22.63;;;18.20;88.30;;;;;;5074015;28;20029;-37
2021/08/19 12:35:04;;;;;;;31.88;21.98;;;18.40;88.10;;;;;;5073358;28;20100;-37